sensor_id;sensor_type;location;lat;lon;timestamp;temperature;humidity
16732;DHT22;8484;50.904;9.192;2023-01-16T00:01:47;4.00;99.90
16732;DHT22;8484;50.904;9.192;2023-01-16T00:04:14;4.00;99.90
16732;DHT22;8484;50.904;9.192;2023-01-16T00:06:41;4.00;99.90
16732;DHT22;8484;50.904;9.192;2023-01-16T00:09:09;4.00;99.90
16732;DHT22;8484;50.904;9.192;2023-01-16T00:11:36;4.00;99.90
16732;DHT22;8484;50.904;9.192;2023-01-16T00:14:03;4.00;99.90
16732;DHT22;8484;50.904;9.192;2023-01-16T00:16:30;3.90;99.90
16732;DHT22;8484;50.904;9.192;2023-01-16T00:18:57;3.90;99.90
16732;DHT22;8484;50.904;9.192;2023-01-16T00:21:24;3.90;99.90
16732;DHT22;8484;50.904;9.192;2023-01-16T00:23:53;3.90;99.90
16732;DHT22;8484;50.904;9.192;2023-01-16T00:26:21;3.90;99.90
16732;DHT22;8484;50.904;9.192;2023-01-16T00:28:49;3.90;99.90
16732;DHT22;8484;50.904;9.192;2023-01-16T00:31:16;3.90;99.90
16732;DHT22;8484;50.904;9.192;2023-01-16T00:33:43;3.80;99.90
16732;DHT22;8484;50.904;9.192;2023-01-16T00:36:10;3.90;99.90
16732;DHT22;8484;50.904;9.192;2023-01-16T00:38:38;3.90;99.90
16732;DHT22;8484;50.904;9.192;2023-01-16T00:41:05;3.90;99.90
16732;DHT22;8484;50.904;9.192;2023-01-16T00:43:34;3.90;99.90
16732;DHT22;8484;50.904;9.192;2023-01-16T00:46:01;4.00;99.90
16732;DHT22;8484;50.904;9.192;2023-01-16T00:48:28;4.10;99.90
16732;DHT22;8484;50.904;9.192;2023-01-16T00:50:55;4.10;99.90
16732;DHT22;8484;50.904;9.192;2023-01-16T00:53:22;4.10;99.90
16732;DHT22;8484;50.904;9.192;2023-01-16T00:55:50;4.10;99.90
16732;DHT22;8484;50.904;9.192;2023-01-16T00:58:17;4.00;99.90
16732;DHT22;8484;50.904;9.192;2023-01-16T01:00:45;4.00;99.90
16732;DHT22;8484;50.904;9.192;2023-01-16T01:03:12;4.10;99.90
16732;DHT22;8484;50.904;9.192;2023-01-16T01:05:39;4.10;99.90
16732;DHT22;8484;50.904;9.192;2023-01-16T01:08:06;4.10;99.90
16732;DHT22;8484;50.904;9.192;2023-01-16T01:10:36;4.00;99.90
16732;DHT22;8484;50.904;9.192;2023-01-16T01:13:04;4.00;99.90
16732;DHT22;8484;50.904;9.192;2023-01-16T01:15:31;4.00;99.90
16732;DHT22;8484;50.904;9.192;2023-01-16T01:17:59;3.90;99.90
16732;DHT22;8484;50.904;9.192;2023-01-16T01:20:26;4.00;99.90
16732;DHT22;8484;50.904;9.192;2023-01-16T01:22:53;4.00;99.90
16732;DHT22;8484;50.904;9.192;2023-01-16T01:25:20;3.90;99.90
16732;DHT22;8484;50.904;9.192;2023-01-16T01:27:47;3.90;99.90
16732;DHT22;8484;50.904;9.192;2023-01-16T01:30:14;3.90;99.90
16732;DHT22;8484;50.904;9.192;2023-01-16T01:32:41;3.90;99.90
16732;DHT22;8484;50.904;9.192;2023-01-16T01:35:10;4.00;99.90
16732;DHT22;8484;50.904;9.192;2023-01-16T01:37:37;4.00;99.90
16732;DHT22;8484;50.904;9.192;2023-01-16T01:40:05;4.10;99.90
16732;DHT22;8484;50.904;9.192;2023-01-16T01:42:36;4.00;99.90
16732;DHT22;8484;50.904;9.192;2023-01-16T01:45:15;4.00;99.90
16732;DHT22;8484;50.904;9.192;2023-01-16T01:47:46;4.00;99.90
16732;DHT22;8484;50.904;9.192;2023-01-16T01:50:23;4.10;99.90
16732;DHT22;8484;50.904;9.192;2023-01-16T01:52:53;4.10;99.90
16732;DHT22;8484;50.904;9.192;2023-01-16T01:55:21;4.20;99.90
16732;DHT22;8484;50.904;9.192;2023-01-16T01:57:51;4.20;99.90
16732;DHT22;8484;50.904;9.192;2023-01-16T02:00:23;4.20;99.90
16732;DHT22;8484;50.904;9.192;2023-01-16T02:02:53;4.30;99.90
16732;DHT22;8484;50.904;9.192;2023-01-16T02:05:26;4.30;99.90
16732;DHT22;8484;50.904;9.192;2023-01-16T02:07:53;4.20;99.90
16732;DHT22;8484;50.904;9.192;2023-01-16T02:10:27;4.30;99.90
16732;DHT22;8484;50.904;9.192;2023-01-16T02:12:56;4.20;99.90
16732;DHT22;8484;50.904;9.192;2023-01-16T02:15:24;4.30;99.90
16732;DHT22;8484;50.904;9.192;2023-01-16T02:17:51;4.20;99.90
16732;DHT22;8484;50.904;9.192;2023-01-16T02:20:49;4.20;99.90
16732;DHT22;8484;50.904;9.192;2023-01-16T02:23:47;4.10;99.90
16732;DHT22;8484;50.904;9.192;2023-01-16T02:26:37;4.10;99.90
16732;DHT22;8484;50.904;9.192;2023-01-16T02:29:27;4.10;99.90
16732;DHT22;8484;50.904;9.192;2023-01-16T02:32:12;4.00;99.90
16732;DHT22;8484;50.904;9.192;2023-01-16T02:37:44;4.00;99.90
16732;DHT22;8484;50.904;9.192;2023-01-16T02:40:30;4.00;99.90
16732;DHT22;8484;50.904;9.192;2023-01-16T02:43:07;4.00;99.90
16732;DHT22;8484;50.904;9.192;2023-01-16T02:45:42;4.00;99.90
16732;DHT22;8484;50.904;9.192;2023-01-16T02:48:17;4.00;99.90
16732;DHT22;8484;50.904;9.192;2023-01-16T02:50:55;4.00;99.90
16732;DHT22;8484;50.904;9.192;2023-01-16T02:53:28;4.10;99.90
16732;DHT22;8484;50.904;9.192;2023-01-16T02:55:57;4.10;99.90
16732;DHT22;8484;50.904;9.192;2023-01-16T02:58:31;4.10;99.90
16732;DHT22;8484;50.904;9.192;2023-01-16T03:00:59;4.10;99.90
16732;DHT22;8484;50.904;9.192;2023-01-16T03:03:40;4.20;99.90
16732;DHT22;8484;50.904;9.192;2023-01-16T03:06:31;4.20;99.90
16732;DHT22;8484;50.904;9.192;2023-01-16T03:09:17;4.20;99.90
16732;DHT22;8484;50.904;9.192;2023-01-16T03:11:56;4.20;99.90
16732;DHT22;8484;50.904;9.192;2023-01-16T03:14:33;4.20;99.90
16732;DHT22;8484;50.904;9.192;2023-01-16T03:17:15;4.10;99.90
16732;DHT22;8484;50.904;9.192;2023-01-16T03:19:54;3.90;99.90
16732;DHT22;8484;50.904;9.192;2023-01-16T03:22:27;3.90;99.90
16732;DHT22;8484;50.904;9.192;2023-01-16T03:25:02;3.90;99.90
16732;DHT22;8484;50.904;9.192;2023-01-16T03:27:43;3.90;99.90
16732;DHT22;8484;50.904;9.192;2023-01-16T03:30:16;4.10;99.90
16732;DHT22;8484;50.904;9.192;2023-01-16T03:32:49;4.10;99.90
16732;DHT22;8484;50.904;9.192;2023-01-16T03:35:22;4.10;99.90
16732;DHT22;8484;50.904;9.192;2023-01-16T03:37:53;4.10;99.90
16732;DHT22;8484;50.904;9.192;2023-01-16T03:40:24;4.10;99.90
16732;DHT22;8484;50.904;9.192;2023-01-16T03:42:56;4.20;99.90
16732;DHT22;8484;50.904;9.192;2023-01-16T03:45:27;4.10;99.90
16732;DHT22;8484;50.904;9.192;2023-01-16T03:48:00;4.20;99.90
16732;DHT22;8484;50.904;9.192;2023-01-16T03:50:31;4.20;99.90
16732;DHT22;8484;50.904;9.192;2023-01-16T03:53:04;4.20;99.90
16732;DHT22;8484;50.904;9.192;2023-01-16T03:55:36;4.20;99.90
16732;DHT22;8484;50.904;9.192;2023-01-16T03:58:08;4.10;99.90
16732;DHT22;8484;50.904;9.192;2023-01-16T04:00:39;4.20;99.90
16732;DHT22;8484;50.904;9.192;2023-01-16T04:03:13;4.10;99.90
16732;DHT22;8484;50.904;9.192;2023-01-16T04:05:49;4.20;99.90
16732;DHT22;8484;50.904;9.192;2023-01-16T04:08:22;4.20;99.90
16732;DHT22;8484;50.904;9.192;2023-01-16T04:10:52;4.20;99.90
16732;DHT22;8484;50.904;9.192;2023-01-16T04:13:22;4.20;99.90
16732;DHT22;8484;50.904;9.192;2023-01-16T04:15:53;4.20;99.90
16732;DHT22;8484;50.904;9.192;2023-01-16T04:18:26;4.20;99.90
16732;DHT22;8484;50.904;9.192;2023-01-16T04:20:56;4.20;99.90
16732;DHT22;8484;50.904;9.192;2023-01-16T04:23:23;4.20;99.90
16732;DHT22;8484;50.904;9.192;2023-01-16T04:25:49;4.20;99.90
16732;DHT22;8484;50.904;9.192;2023-01-16T04:28:17;4.20;99.90
16732;DHT22;8484;50.904;9.192;2023-01-16T04:30:44;4.30;99.90
16732;DHT22;8484;50.904;9.192;2023-01-16T04:33:10;4.20;99.90
16732;DHT22;8484;50.904;9.192;2023-01-16T04:35:37;4.30;99.90
16732;DHT22;8484;50.904;9.192;2023-01-16T04:38:06;4.30;99.90
16732;DHT22;8484;50.904;9.192;2023-01-16T04:40:33;4.30;99.90
16732;DHT22;8484;50.904;9.192;2023-01-16T04:42:59;4.30;99.90
16732;DHT22;8484;50.904;9.192;2023-01-16T04:45:26;4.30;99.90
16732;DHT22;8484;50.904;9.192;2023-01-16T04:47:53;4.20;99.90
16732;DHT22;8484;50.904;9.192;2023-01-16T04:50:20;4.20;99.90
16732;DHT22;8484;50.904;9.192;2023-01-16T04:52:47;4.20;99.90
16732;DHT22;8484;50.904;9.192;2023-01-16T04:55:15;4.20;99.90
16732;DHT22;8484;50.904;9.192;2023-01-16T04:57:42;4.40;99.90
16732;DHT22;8484;50.904;9.192;2023-01-16T05:00:11;4.30;99.90
16732;DHT22;8484;50.904;9.192;2023-01-16T05:02:38;4.30;99.90
16732;DHT22;8484;50.904;9.192;2023-01-16T05:05:05;4.30;99.90
16732;DHT22;8484;50.904;9.192;2023-01-16T05:07:32;4.30;99.90
16732;DHT22;8484;50.904;9.192;2023-01-16T05:09:59;4.30;99.90
16732;DHT22;8484;50.904;9.192;2023-01-16T05:12:28;4.20;99.90
16732;DHT22;8484;50.904;9.192;2023-01-16T05:14:54;4.20;99.90
16732;DHT22;8484;50.904;9.192;2023-01-16T05:17:21;4.20;99.90
16732;DHT22;8484;50.904;9.192;2023-01-16T05:19:50;4.10;99.90
16732;DHT22;8484;50.904;9.192;2023-01-16T05:22:17;4.00;99.90
16732;DHT22;8484;50.904;9.192;2023-01-16T05:24:44;4.10;99.90
16732;DHT22;8484;50.904;9.192;2023-01-16T05:27:11;4.10;99.90
16732;DHT22;8484;50.904;9.192;2023-01-16T05:29:39;4.00;99.90
16732;DHT22;8484;50.904;9.192;2023-01-16T05:32:06;4.00;99.90
16732;DHT22;8484;50.904;9.192;2023-01-16T05:34:33;3.90;99.90
16732;DHT22;8484;50.904;9.192;2023-01-16T05:37:00;4.00;99.90
16732;DHT22;8484;50.904;9.192;2023-01-16T05:39:28;3.90;99.90
16732;DHT22;8484;50.904;9.192;2023-01-16T05:41:55;3.90;99.90
16732;DHT22;8484;50.904;9.192;2023-01-16T05:44:22;3.90;99.90
16732;DHT22;8484;50.904;9.192;2023-01-16T05:46:50;3.90;99.90
16732;DHT22;8484;50.904;9.192;2023-01-16T05:49:17;3.90;99.90
16732;DHT22;8484;50.904;9.192;2023-01-16T05:51:44;3.90;99.90
16732;DHT22;8484;50.904;9.192;2023-01-16T05:54:11;3.90;99.90
16732;DHT22;8484;50.904;9.192;2023-01-16T05:56:38;3.90;99.90
16732;DHT22;8484;50.904;9.192;2023-01-16T05:59:05;3.90;99.90
16732;DHT22;8484;50.904;9.192;2023-01-16T06:01:32;3.90;99.90
16732;DHT22;8484;50.904;9.192;2023-01-16T06:04:00;3.90;99.90
16732;DHT22;8484;50.904;9.192;2023-01-16T06:06:27;4.00;99.90
16732;DHT22;8484;50.904;9.192;2023-01-16T06:08:54;4.10;99.90
16732;DHT22;8484;50.904;9.192;2023-01-16T06:11:21;4.00;99.90
16732;DHT22;8484;50.904;9.192;2023-01-16T06:13:48;4.00;99.90
16732;DHT22;8484;50.904;9.192;2023-01-16T06:16:14;4.00;99.90
16732;DHT22;8484;50.904;9.192;2023-01-16T06:18:41;4.00;99.90
16732;DHT22;8484;50.904;9.192;2023-01-16T06:21:10;4.10;99.90
16732;DHT22;8484;50.904;9.192;2023-01-16T06:23:37;4.20;99.90
16732;DHT22;8484;50.904;9.192;2023-01-16T06:26:04;4.10;99.90
16732;DHT22;8484;50.904;9.192;2023-01-16T06:28:35;4.10;99.90
16732;DHT22;8484;50.904;9.192;2023-01-16T06:31:02;4.10;99.90
16732;DHT22;8484;50.904;9.192;2023-01-16T06:33:29;4.10;99.90
16732;DHT22;8484;50.904;9.192;2023-01-16T06:35:55;4.10;99.90
16732;DHT22;8484;50.904;9.192;2023-01-16T06:38:24;4.10;99.90
16732;DHT22;8484;50.904;9.192;2023-01-16T06:40:51;4.10;99.90
16732;DHT22;8484;50.904;9.192;2023-01-16T06:43:22;4.10;99.90
16732;DHT22;8484;50.904;9.192;2023-01-16T06:45:49;4.10;99.90
16732;DHT22;8484;50.904;9.192;2023-01-16T06:48:15;4.10;99.90
16732;DHT22;8484;50.904;9.192;2023-01-16T06:50:42;4.10;99.90
16732;DHT22;8484;50.904;9.192;2023-01-16T06:53:09;4.00;99.90
16732;DHT22;8484;50.904;9.192;2023-01-16T06:55:38;4.00;99.90
16732;DHT22;8484;50.904;9.192;2023-01-16T06:58:06;4.00;99.90
16732;DHT22;8484;50.904;9.192;2023-01-16T07:00:34;4.00;99.90
16732;DHT22;8484;50.904;9.192;2023-01-16T07:03:10;4.00;99.90
16732;DHT22;8484;50.904;9.192;2023-01-16T07:05:38;4.10;99.90
16732;DHT22;8484;50.904;9.192;2023-01-16T07:08:05;4.10;99.90
16732;DHT22;8484;50.904;9.192;2023-01-16T07:10:32;4.10;99.90
16732;DHT22;8484;50.904;9.192;2023-01-16T07:13:00;4.10;99.90
16732;DHT22;8484;50.904;9.192;2023-01-16T07:15:27;4.00;99.90
16732;DHT22;8484;50.904;9.192;2023-01-16T07:18:12;4.00;99.90
16732;DHT22;8484;50.904;9.192;2023-01-16T07:20:58;3.90;99.90
16732;DHT22;8484;50.904;9.192;2023-01-16T07:23:45;3.70;99.90
16732;DHT22;8484;50.904;9.192;2023-01-16T07:26:14;3.70;99.90
16732;DHT22;8484;50.904;9.192;2023-01-16T07:28:46;3.70;99.90
16732;DHT22;8484;50.904;9.192;2023-01-16T07:31:13;3.70;99.90
16732;DHT22;8484;50.904;9.192;2023-01-16T07:33:40;3.60;99.90
16732;DHT22;8484;50.904;9.192;2023-01-16T07:36:07;3.60;99.90
16732;DHT22;8484;50.904;9.192;2023-01-16T07:38:34;3.60;99.90
16732;DHT22;8484;50.904;9.192;2023-01-16T07:41:01;3.60;99.90
16732;DHT22;8484;50.904;9.192;2023-01-16T07:43:28;3.50;99.90
16732;DHT22;8484;50.904;9.192;2023-01-16T07:45:56;3.50;99.90
16732;DHT22;8484;50.904;9.192;2023-01-16T07:48:23;3.60;99.90
16732;DHT22;8484;50.904;9.192;2023-01-16T07:50:51;3.60;99.90
16732;DHT22;8484;50.904;9.192;2023-01-16T07:53:19;3.60;99.90
16732;DHT22;8484;50.904;9.192;2023-01-16T07:55:48;3.60;99.90
16732;DHT22;8484;50.904;9.192;2023-01-16T07:58:15;3.50;99.90
16732;DHT22;8484;50.904;9.192;2023-01-16T08:00:43;3.60;99.90
16732;DHT22;8484;50.904;9.192;2023-01-16T08:03:11;3.60;99.90
16732;DHT22;8484;50.904;9.192;2023-01-16T08:05:39;3.60;99.90
16732;DHT22;8484;50.904;9.192;2023-01-16T08:08:06;3.60;99.90
16732;DHT22;8484;50.904;9.192;2023-01-16T08:10:33;3.70;99.90
16732;DHT22;8484;50.904;9.192;2023-01-16T08:13:00;3.70;99.90
16732;DHT22;8484;50.904;9.192;2023-01-16T08:15:27;3.70;99.90
16732;DHT22;8484;50.904;9.192;2023-01-16T08:17:54;3.80;99.90
16732;DHT22;8484;50.904;9.192;2023-01-16T08:20:23;3.80;99.90
16732;DHT22;8484;50.904;9.192;2023-01-16T08:22:51;3.80;99.90
16732;DHT22;8484;50.904;9.192;2023-01-16T08:25:20;3.90;99.90
16732;DHT22;8484;50.904;9.192;2023-01-16T08:27:48;3.90;99.90
16732;DHT22;8484;50.904;9.192;2023-01-16T08:30:17;3.90;99.90
16732;DHT22;8484;50.904;9.192;2023-01-16T08:32:44;4.00;99.90
16732;DHT22;8484;50.904;9.192;2023-01-16T08:35:11;4.00;99.90
16732;DHT22;8484;50.904;9.192;2023-01-16T08:37:43;4.00;99.90
16732;DHT22;8484;50.904;9.192;2023-01-16T08:40:13;4.10;99.90
16732;DHT22;8484;50.904;9.192;2023-01-16T08:42:40;4.00;99.90
16732;DHT22;8484;50.904;9.192;2023-01-16T08:45:24;4.00;99.90
16732;DHT22;8484;50.904;9.192;2023-01-16T08:48:11;3.90;99.90
16732;DHT22;8484;50.904;9.192;2023-01-16T08:50:58;3.90;99.90
16732;DHT22;8484;50.904;9.192;2023-01-16T08:53:44;4.00;99.90
16732;DHT22;8484;50.904;9.192;2023-01-16T08:56:11;4.00;99.90
16732;DHT22;8484;50.904;9.192;2023-01-16T08:58:37;4.00;99.90
16732;DHT22;8484;50.904;9.192;2023-01-16T09:01:05;4.10;99.90
16732;DHT22;8484;50.904;9.192;2023-01-16T09:03:31;4.10;99.90
16732;DHT22;8484;50.904;9.192;2023-01-16T09:05:59;4.10;99.90
16732;DHT22;8484;50.904;9.192;2023-01-16T09:08:26;4.10;99.90
16732;DHT22;8484;50.904;9.192;2023-01-16T09:10:54;4.10;99.90
16732;DHT22;8484;50.904;9.192;2023-01-16T09:13:39;4.10;99.90
16732;DHT22;8484;50.904;9.192;2023-01-16T09:16:18;4.10;99.90
16732;DHT22;8484;50.904;9.192;2023-01-16T09:18:45;4.10;99.90
16732;DHT22;8484;50.904;9.192;2023-01-16T09:21:12;4.10;99.90
16732;DHT22;8484;50.904;9.192;2023-01-16T09:23:39;4.20;99.90
16732;DHT22;8484;50.904;9.192;2023-01-16T09:26:08;4.20;99.90
16732;DHT22;8484;50.904;9.192;2023-01-16T09:28:35;4.20;99.90
16732;DHT22;8484;50.904;9.192;2023-01-16T09:31:02;4.30;99.90
16732;DHT22;8484;50.904;9.192;2023-01-16T09:33:29;4.40;99.90
16732;DHT22;8484;50.904;9.192;2023-01-16T09:35:56;4.40;99.90
16732;DHT22;8484;50.904;9.192;2023-01-16T09:38:23;4.50;99.90
16732;DHT22;8484;50.904;9.192;2023-01-16T09:40:52;4.50;99.90
16732;DHT22;8484;50.904;9.192;2023-01-16T09:43:43;4.60;99.90
16732;DHT22;8484;50.904;9.192;2023-01-16T09:46:13;4.60;99.90
16732;DHT22;8484;50.904;9.192;2023-01-16T09:48:47;4.70;99.90
16732;DHT22;8484;50.904;9.192;2023-01-16T09:51:19;4.60;99.90
16732;DHT22;8484;50.904;9.192;2023-01-16T09:53:50;4.70;99.90
16732;DHT22;8484;50.904;9.192;2023-01-16T09:56:38;4.70;99.90
16732;DHT22;8484;50.904;9.192;2023-01-16T09:59:29;4.70;99.90
16732;DHT22;8484;50.904;9.192;2023-01-16T10:02:05;4.70;99.90
16732;DHT22;8484;50.904;9.192;2023-01-16T10:04:36;4.70;99.90
16732;DHT22;8484;50.904;9.192;2023-01-16T10:07:23;4.60;99.90
16732;DHT22;8484;50.904;9.192;2023-01-16T10:09:58;4.50;99.90
16732;DHT22;8484;50.904;9.192;2023-01-16T10:12:33;4.60;99.90
16732;DHT22;8484;50.904;9.192;2023-01-16T10:15:14;4.60;99.90
16732;DHT22;8484;50.904;9.192;2023-01-16T10:17:49;4.60;99.90
16732;DHT22;8484;50.904;9.192;2023-01-16T10:20:41;4.60;99.90
16732;DHT22;8484;50.904;9.192;2023-01-16T10:23:26;4.60;99.90
16732;DHT22;8484;50.904;9.192;2023-01-16T10:26:03;4.40;99.90
16732;DHT22;8484;50.904;9.192;2023-01-16T10:28:54;4.20;99.90
16732;DHT22;8484;50.904;9.192;2023-01-16T10:31:26;4.20;99.90
16732;DHT22;8484;50.904;9.192;2023-01-16T10:33:56;4.10;99.90
16732;DHT22;8484;50.904;9.192;2023-01-16T10:36:28;4.20;99.90
16732;DHT22;8484;50.904;9.192;2023-01-16T10:38:59;4.30;99.90
16732;DHT22;8484;50.904;9.192;2023-01-16T10:41:28;4.30;99.90
16732;DHT22;8484;50.904;9.192;2023-01-16T10:44:28;4.30;99.90
16732;DHT22;8484;50.904;9.192;2023-01-16T10:47:17;4.30;99.90
16732;DHT22;8484;50.904;9.192;2023-01-16T10:50:03;4.20;99.90
16732;DHT22;8484;50.904;9.192;2023-01-16T10:52:31;4.20;99.90
16732;DHT22;8484;50.904;9.192;2023-01-16T10:54:59;4.10;99.90
16732;DHT22;8484;50.904;9.192;2023-01-16T10:57:27;4.00;99.90
16732;DHT22;8484;50.904;9.192;2023-01-16T10:59:57;3.90;99.90
16732;DHT22;8484;50.904;9.192;2023-01-16T11:02:30;3.80;99.90
16732;DHT22;8484;50.904;9.192;2023-01-16T11:04:58;3.80;99.90
16732;DHT22;8484;50.904;9.192;2023-01-16T11:07:28;3.70;99.90
16732;DHT22;8484;50.904;9.192;2023-01-16T11:09:56;3.80;99.90
16732;DHT22;8484;50.904;9.192;2023-01-16T11:12:27;3.80;99.90
16732;DHT22;8484;50.904;9.192;2023-01-16T11:15:16;3.60;99.90
16732;DHT22;8484;50.904;9.192;2023-01-16T11:18:07;3.60;99.90
16732;DHT22;8484;50.904;9.192;2023-01-16T11:21:00;3.40;99.90
16732;DHT22;8484;50.904;9.192;2023-01-16T11:23:36;3.10;99.90
16732;DHT22;8484;50.904;9.192;2023-01-16T11:26:04;3.00;99.90
16732;DHT22;8484;50.904;9.192;2023-01-16T11:28:32;2.90;99.90
16732;DHT22;8484;50.904;9.192;2023-01-16T11:31:01;2.80;99.90
16732;DHT22;8484;50.904;9.192;2023-01-16T11:33:35;2.70;99.90
16732;DHT22;8484;50.904;9.192;2023-01-16T11:36:05;2.70;99.90
16732;DHT22;8484;50.904;9.192;2023-01-16T11:38:34;2.70;99.90
16732;DHT22;8484;50.904;9.192;2023-01-16T11:41:05;2.60;99.90
16732;DHT22;8484;50.904;9.192;2023-01-16T11:43:34;2.60;99.90
16732;DHT22;8484;50.904;9.192;2023-01-16T11:46:31;2.50;99.90
16732;DHT22;8484;50.904;9.192;2023-01-16T11:49:02;2.50;99.90
16732;DHT22;8484;50.904;9.192;2023-01-16T11:51:31;2.40;99.90
16732;DHT22;8484;50.904;9.192;2023-01-16T11:54:00;2.40;99.90
16732;DHT22;8484;50.904;9.192;2023-01-16T11:56:50;2.30;99.90
16732;DHT22;8484;50.904;9.192;2023-01-16T11:59:45;2.30;99.90
16732;DHT22;8484;50.904;9.192;2023-01-16T12:02:24;2.20;99.90
16732;DHT22;8484;50.904;9.192;2023-01-16T12:05:04;2.30;99.90
16732;DHT22;8484;50.904;9.192;2023-01-16T12:08:01;2.10;99.90
16732;DHT22;8484;50.904;9.192;2023-01-16T12:10:37;2.10;99.90
16732;DHT22;8484;50.904;9.192;2023-01-16T12:13:09;2.20;99.90
16732;DHT22;8484;50.904;9.192;2023-01-16T12:16:03;2.20;99.90
16732;DHT22;8484;50.904;9.192;2023-01-16T12:18:38;2.20;99.90
16732;DHT22;8484;50.904;9.192;2023-01-16T12:21:21;2.20;99.90
16732;DHT22;8484;50.904;9.192;2023-01-16T12:23:59;2.30;99.90
16732;DHT22;8484;50.904;9.192;2023-01-16T12:26:36;2.30;99.90
16732;DHT22;8484;50.904;9.192;2023-01-16T12:29:20;2.40;99.90
16732;DHT22;8484;50.904;9.192;2023-01-16T12:32:05;2.40;99.90
16732;DHT22;8484;50.904;9.192;2023-01-16T12:34:55;2.40;99.90
16732;DHT22;8484;50.904;9.192;2023-01-16T12:37:51;2.40;99.90
16732;DHT22;8484;50.904;9.192;2023-01-16T12:43:47;2.40;99.90
16732;DHT22;8484;50.904;9.192;2023-01-16T12:46:23;2.50;99.90
16732;DHT22;8484;50.904;9.192;2023-01-16T12:49:01;2.50;99.90
16732;DHT22;8484;50.904;9.192;2023-01-16T12:51:41;2.50;99.90
16732;DHT22;8484;50.904;9.192;2023-01-16T12:54:47;2.60;99.90
16732;DHT22;8484;50.904;9.192;2023-01-16T13:00:13;2.70;99.90
16732;DHT22;8484;50.904;9.192;2023-01-16T13:02:46;2.80;99.90
16732;DHT22;8484;50.904;9.192;2023-01-16T13:05:18;2.90;99.90
16732;DHT22;8484;50.904;9.192;2023-01-16T13:07:50;3.00;99.90
16732;DHT22;8484;50.904;9.192;2023-01-16T13:10:22;3.00;99.90
16732;DHT22;8484;50.904;9.192;2023-01-16T13:13:13;3.00;99.90
16732;DHT22;8484;50.904;9.192;2023-01-16T13:15:52;3.10;99.90
16732;DHT22;8484;50.904;9.192;2023-01-16T13:18:23;3.10;99.90
16732;DHT22;8484;50.904;9.192;2023-01-16T13:20:53;3.10;99.90
16732;DHT22;8484;50.904;9.192;2023-01-16T13:23:23;3.20;99.90
16732;DHT22;8484;50.904;9.192;2023-01-16T13:25:57;3.20;99.90
16732;DHT22;8484;50.904;9.192;2023-01-16T13:28:34;3.10;99.90
16732;DHT22;8484;50.904;9.192;2023-01-16T13:31:06;3.20;99.90
16732;DHT22;8484;50.904;9.192;2023-01-16T13:33:36;3.20;99.90
16732;DHT22;8484;50.904;9.192;2023-01-16T13:36:17;3.20;99.90
16732;DHT22;8484;50.904;9.192;2023-01-16T13:38:59;3.20;99.90
16732;DHT22;8484;50.904;9.192;2023-01-16T13:41:34;3.20;99.90
16732;DHT22;8484;50.904;9.192;2023-01-16T13:44:08;3.30;99.90
16732;DHT22;8484;50.904;9.192;2023-01-16T13:47:03;3.30;99.90
16732;DHT22;8484;50.904;9.192;2023-01-16T13:49:30;3.40;99.90
16732;DHT22;8484;50.904;9.192;2023-01-16T13:52:00;3.40;99.90
16732;DHT22;8484;50.904;9.192;2023-01-16T13:54:36;3.50;99.90
16732;DHT22;8484;50.904;9.192;2023-01-16T13:57:12;3.60;99.90
16732;DHT22;8484;50.904;9.192;2023-01-16T13:59:44;3.50;99.90
16732;DHT22;8484;50.904;9.192;2023-01-16T14:02:25;3.80;99.90
16732;DHT22;8484;50.904;9.192;2023-01-16T14:05:15;3.50;99.90
16732;DHT22;8484;50.904;9.192;2023-01-16T14:07:49;3.60;99.90
16732;DHT22;8484;50.904;9.192;2023-01-16T14:10:39;3.60;99.90
16732;DHT22;8484;50.904;9.192;2023-01-16T14:13:20;3.50;99.90
16732;DHT22;8484;50.904;9.192;2023-01-16T14:15:53;3.50;99.90
16732;DHT22;8484;50.904;9.192;2023-01-16T14:18:41;3.40;99.90
16732;DHT22;8484;50.904;9.192;2023-01-16T14:21:18;3.50;99.90
16732;DHT22;8484;50.904;9.192;2023-01-16T14:23:47;3.50;99.90
16732;DHT22;8484;50.904;9.192;2023-01-16T14:26:35;3.60;99.90
16732;DHT22;8484;50.904;9.192;2023-01-16T14:29:16;3.60;99.90
16732;DHT22;8484;50.904;9.192;2023-01-16T14:31:49;3.60;99.90
16732;DHT22;8484;50.904;9.192;2023-01-16T14:34:21;3.60;99.90
16732;DHT22;8484;50.904;9.192;2023-01-16T14:36:50;3.60;99.90
16732;DHT22;8484;50.904;9.192;2023-01-16T14:39:30;3.60;99.90
16732;DHT22;8484;50.904;9.192;2023-01-16T14:42:02;3.70;99.90
16732;DHT22;8484;50.904;9.192;2023-01-16T14:48:31;3.70;99.90
16732;DHT22;8484;50.904;9.192;2023-01-16T14:51:24;3.70;99.90
16732;DHT22;8484;50.904;9.192;2023-01-16T14:54:11;3.70;99.90
16732;DHT22;8484;50.904;9.192;2023-01-16T14:56:59;3.60;99.90
16732;DHT22;8484;50.904;9.192;2023-01-16T14:59:30;3.70;99.90
16732;DHT22;8484;50.904;9.192;2023-01-16T15:02:01;3.70;99.90
16732;DHT22;8484;50.904;9.192;2023-01-16T15:05:01;3.70;99.90
16732;DHT22;8484;50.904;9.192;2023-01-16T15:07:37;3.70;99.90
16732;DHT22;8484;50.904;9.192;2023-01-16T15:10:11;3.70;99.90
16732;DHT22;8484;50.904;9.192;2023-01-16T15:12:40;3.80;99.90
16732;DHT22;8484;50.904;9.192;2023-01-16T15:15:20;3.70;99.90
16732;DHT22;8484;50.904;9.192;2023-01-16T15:17:49;3.80;99.90
16732;DHT22;8484;50.904;9.192;2023-01-16T15:20:48;3.80;99.90
16732;DHT22;8484;50.904;9.192;2023-01-16T15:23:34;3.80;99.90
16732;DHT22;8484;50.904;9.192;2023-01-16T15:26:23;3.70;99.90
16732;DHT22;8484;50.904;9.192;2023-01-16T15:29:06;3.80;99.90
16732;DHT22;8484;50.904;9.192;2023-01-16T15:31:38;3.70;99.90
16732;DHT22;8484;50.904;9.192;2023-01-16T15:34:19;3.80;99.90
16732;DHT22;8484;50.904;9.192;2023-01-16T15:36:49;3.80;99.90
16732;DHT22;8484;50.904;9.192;2023-01-16T15:39:22;3.80;99.90
16732;DHT22;8484;50.904;9.192;2023-01-16T15:41:55;3.70;99.90
16732;DHT22;8484;50.904;9.192;2023-01-16T15:44:41;3.80;99.90
16732;DHT22;8484;50.904;9.192;2023-01-16T15:47:44;3.80;99.90
16732;DHT22;8484;50.904;9.192;2023-01-16T15:50:21;3.80;99.90
16732;DHT22;8484;50.904;9.192;2023-01-16T15:52:53;3.70;99.90
16732;DHT22;8484;50.904;9.192;2023-01-16T15:55:25;3.90;99.90
16732;DHT22;8484;50.904;9.192;2023-01-16T15:57:57;3.80;99.90
16732;DHT22;8484;50.904;9.192;2023-01-16T16:00:29;3.80;99.90
16732;DHT22;8484;50.904;9.192;2023-01-16T16:02:57;3.70;99.90
16732;DHT22;8484;50.904;9.192;2023-01-16T16:05:26;3.70;99.90
16732;DHT22;8484;50.904;9.192;2023-01-16T16:07:55;3.60;99.90
16732;DHT22;8484;50.904;9.192;2023-01-16T16:10:23;3.50;99.90
16732;DHT22;8484;50.904;9.192;2023-01-16T16:13:12;3.60;99.90
16732;DHT22;8484;50.904;9.192;2023-01-16T16:15:53;3.70;99.90
16732;DHT22;8484;50.904;9.192;2023-01-16T16:18:38;3.70;99.90
16732;DHT22;8484;50.904;9.192;2023-01-16T16:21:06;3.60;99.90
16732;DHT22;8484;50.904;9.192;2023-01-16T16:23:35;3.50;99.90
16732;DHT22;8484;50.904;9.192;2023-01-16T16:26:03;3.50;99.90
16732;DHT22;8484;50.904;9.192;2023-01-16T16:28:34;3.60;99.90
16732;DHT22;8484;50.904;9.192;2023-01-16T16:31:09;3.50;99.90
16732;DHT22;8484;50.904;9.192;2023-01-16T16:33:39;3.50;99.90
16732;DHT22;8484;50.904;9.192;2023-01-16T16:36:06;3.50;99.90
16732;DHT22;8484;50.904;9.192;2023-01-16T16:38:42;3.70;99.90
16732;DHT22;8484;50.904;9.192;2023-01-16T16:44:42;3.70;99.90
16732;DHT22;8484;50.904;9.192;2023-01-16T16:47:22;3.70;99.90
16732;DHT22;8484;50.904;9.192;2023-01-16T16:49:50;3.60;99.90
16732;DHT22;8484;50.904;9.192;2023-01-16T16:52:29;3.60;99.90
16732;DHT22;8484;50.904;9.192;2023-01-16T16:58:41;3.50;99.90
16732;DHT22;8484;50.904;9.192;2023-01-16T17:01:11;3.50;99.90